Hurlburt Field
KHRT : now visible

Airfield :











YOU CAN JOIN US ON...

 
LOGIN :

Register | Disclaimer

   EN    FR    IT 

 









Legend :    VFR   Marginal VFR   IFR   Intensive IFR   Very Intensive IFR
Visi :
Ceiling :
>= 8 km
>= 3000ft
5 to 8 km
1000 to 3000 ft
1500m to 5 km
500 to 1000 ft
800 to 1500m
200 to 500 ft
< 800m
< 200 ft
Symbols :   Thunderstorms  Fog  Heavy snow  Heavy precipitations  Wind > 20 kt






- Airport Elevation : 38 ft


KHRT - Hurlburt Field

CURRENT METAR :
  • 061056Z AUTO 12006KT 10SM FEW060 SCT075 26/22 A2991 RMK AO2 SLP130 T02600222 $

EXPIRED METARs :
  • 060956Z AUTO 12006KT 10SM CLR 26/22 A2991 RMK AO2 SLP130 T02620220 $
  • 060856Z AUTO 13004KT 10SM CLR 26/22 A2990 RMK AO2 SLP127 T02620218 57020 $

TAF AMD TAF KHRT
Valid from the 06 at 00:00 until the 07 at 00:00 UTC


060040Z 0600/0624 17009KT 9999 FEW050 BKN250 QNH2992INS
BECMG 0618/0619 10010G15KT 9999 SCT045 BKN200 QNH2991INS LAST NO AMDS AFT 0601 NEXT 0617 TX30/0617Z TN20/0611Z
KZJX FIR / North America



MET'MAP, your aeronautical weather chart ! - Copyright ORBIFLY December 2007 - Disclaimer

ORBIFLY MET'MAP TEAM :

Programming & Development : Alexandra Zaïnal
Concept & original design : Baudouin d'Aumeries
Assistance for programming : Marc-Olivier Méhu
Technical & hardware support : Manuel Goepfert

Contact : metmap@orbifly.com




SOURCES & CREDITS :

   NOAA       Earth
Advisory